Ship Status Report: callsign BR3037

sailwx.info

Track history (hours):
 
Tides and Currents Weather Stations Pressure Air Temp Water Temp Dewpoint Dewpoint Depression Visibility Wind Speed Wind Dir Waves Ship Positions

Oceanographic research ship ()

Last reported at 2017-May-23 03:42 UTC. Time now 2017-May-23 04:54 UTC.
Position N 22°32' E 120°14'.

Length 39 m.

Type: Other ship. MMSI: 416926000.

Date/timePositionNaut miles runAvg speedWind from/ knotsBaromVisibWave heightAir tempDewpointWater temp
2017-May-23 03:42N 22°32' E 120°14'211.3
2017-May-23 03:30N 22°34' E 120°13'3 6.5
2017-May-23 03:00N 22°38' E 120°14'1 0.0
2017-May-22 08:25N 22°37' E 120°14'2 5.1
2017-May-22 07:58N 22°39' E 120°12'1 2.0
2017-May-22 07:30N 22°39' E 120°13'1 1.3
2017-May-22 07:00N 22°40' E 120°13'0 0.5
2017-May-22 06:30N 22°40' E 120°13'0 0.1
2017-May-22 06:00N 22°40' E 120°13'0 0.4
2017-May-22 05:27N 22°40' E 120°13'1 1.2
2017-May-22 05:00N 22°40' E 120°13'1 1.0
2017-May-22 04:29N 22°40' E 120°13'0 0.8
2017-May-22 03:59N 22°39' E 120°13'0 0.2
2017-May-22 03:25N 22°39' E 120°12'1 2.6
2017-May-22 03:00N 22°38' E 120°12'6 0.2
2017-May-21 02:21N 22°32' E 120°14'411.8
2017-May-21 02:00N 22°36' E 120°12'3 6.7
2017-May-21 01:30N 22°37' E 120°15'1 0.0
2017-May-20 08:59N 22°37' E 120°16'4 8.3
2017-May-20 08:30N 22°36' E 120°12'  
2017-May-18 03:34N 22°32' E 120°13'111.2
2017-May-18 03:30N 22°33' E 120°12'510.5
2017-May-18 03:00N 22°38' E 120°11'6 0.2
2017-May-16 22:27N 22°37' E 120°17'  
Track history (hours):
 
Tides and Currents Weather Stations Pressure Air Temp Water Temp Dewpoint Dewpoint Depression Visibility Wind Speed Wind Dir Waves Ship Positions

Oceanographic research ship ()

Last reported at 2017-May-23 03:42 UTC. Time now 2017-May-23 04:54 UTC.
Position N 22°32' E 120°14'.

Length 39 m.

Type: Other ship. MMSI: 416926000.

Date/timePositionNaut miles runAvg speedWind from/ knotsBaromVisibWave heightAir tempDewpointWater temp
2017-May-23 03:42N 22°32' E 120°14'211.3
2017-May-23 03:30N 22°34' E 120°13'3 6.5
2017-May-23 03:00N 22°38' E 120°14'1 0.0
2017-May-22 08:25N 22°37' E 120°14'2 5.1
2017-May-22 07:58N 22°39' E 120°12'1 2.0
2017-May-22 07:30N 22°39' E 120°13'1 1.3
2017-May-22 07:00N 22°40' E 120°13'0 0.5
2017-May-22 06:30N 22°40' E 120°13'0 0.1
2017-May-22 06:00N 22°40' E 120°13'0 0.4
2017-May-22 05:27N 22°40' E 120°13'1 1.2
2017-May-22 05:00N 22°40' E 120°13'1 1.0
2017-May-22 04:29N 22°40' E 120°13'0 0.8
2017-May-22 03:59N 22°39' E 120°13'0 0.2
2017-May-22 03:25N 22°39' E 120°12'1 2.6
2017-May-22 03:00N 22°38' E 120°12'6 0.2
2017-May-21 02:21N 22°32' E 120°14'411.8
2017-May-21 02:00N 22°36' E 120°12'3 6.7
2017-May-21 01:30N 22°37' E 120°15'1 0.0
2017-May-20 08:59N 22°37' E 120°16'4 8.3
2017-May-20 08:30N 22°36' E 120°12'  
2017-May-18 03:34N 22°32' E 120°13'111.2
2017-May-18 03:30N 22°33' E 120°12'510.5
2017-May-18 03:00N 22°38' E 120°11'6 0.2
2017-May-16 22:27N 22°37' E 120°17'  

Dump ship's entire track history